Time;durP1;ratioP1;P1;durP2;ratioP2;P2;SDS_P1;SDS_P2;PMS_P1;PMS_P2;Temp;Humidity;BMP_temperature;BMP_pressure;BME280_temperature;BME280_humidity;BME280_pressure;Samples;Min_cycle;Max_cycle;Signal;HPM_P1;HPM_P2
2022/11/30 00:06:21;;;;;;;0.88;0.88;;;;;;;5.58;66.45;101204.66;18431481;32;20137;-59
2022/11/30 00:16:26;;;;;;;1.75;1.23;;;;;;;5.62;66.74;101209.97;18417949;32;20094;-60
2022/11/30 00:26:30;;;;;;;1.35;1.35;;;;;;;5.62;67.33;101215.16;18392698;32;20116;-59
2022/11/30 00:36:34;;;;;;;0.68;0.68;;;;;;;5.63;67.69;101214.31;18396044;32;20084;-60
2022/11/30 00:46:38;;;;;;;1.00;1.00;;;;;;;5.36;68.42;101207.44;18408778;32;20100;-59
2022/11/30 00:56:41;;;;;;;1.30;1.20;;;;;;;5.75;66.98;101211.22;18430131;32;161270;-60
2022/11/30 01:06:46;;;;;;;0.70;0.70;;;;;;;6.10;65.69;101200.19;18434802;32;20115;-60
2022/11/30 01:16:50;;;;;;;1.40;1.33;;;;;;;6.28;64.74;101205.00;18433569;32;20115;-59
2022/11/30 01:26:59;;;;;;;0.80;0.80;;;;;;;6.07;64.96;101215.63;18433403;32;20110;-60
2022/11/30 01:37:02;;;;;;;0.60;0.60;;;;;;;5.95;65.67;101203.19;18432909;32;20113;-60
2022/11/30 01:47:10;;;;;;;1.00;1.00;;;;;;;6.20;65.38;101194.44;18432611;32;20101;-59
2022/11/30 01:57:17;;;;;;;0.95;0.90;;;;;;;6.40;64.24;101201.91;18432317;32;20168;-60
2022/11/30 02:07:21;;;;;;;0.80;0.80;;;;;;;6.14;64.72;101219.31;18431196;32;20084;-59
2022/11/30 02:17:29;;;;;;;3.40;2.72;;;;;;;5.46;66.90;101205.12;18432116;32;20146;-59
2022/11/30 02:27:45;;;;;;;0.50;0.50;;;;;;;6.18;64.75;101193.53;18431491;32;20112;-60
2022/11/30 02:37:52;;;;;;;0.95;0.95;;;;;;;6.38;63.62;101188.00;18431111;32;20089;-59
2022/11/30 02:47:58;;;;;;;0.70;0.70;;;;;;;6.18;63.58;101193.53;18431031;32;20471;-59
2022/11/30 02:58:04;;;;;;;0.60;0.60;;;;;;;6.07;63.84;101181.94;18430460;32;20115;-60
2022/11/30 03:08:07;;;;;;;0.85;0.85;;;;;;;6.03;63.80;101190.47;18430338;32;20153;-60
2022/11/30 03:18:12;;;;;;;0.57;0.57;;;;;;;5.97;63.33;101162.63;18429674;32;20093;-60
2022/11/30 03:28:16;;;;;;;1.65;1.55;;;;;;;6.22;62.20;101172.00;18429995;32;20105;-60
2022/11/30 03:38:20;;;;;;;1.02;0.95;;;;;;;6.36;61.81;101180.19;18429525;32;20111;-60
2022/11/30 03:48:25;;;;;;;0.70;0.70;;;;;;;6.41;61.70;101184.62;18430364;32;20085;-60
2022/11/30 03:58:29;;;;;;;0.70;0.70;;;;;;;6.17;60.39;101176.22;18428178;32;20123;-60
2022/11/30 04:08:33;;;;;;;0.70;0.70;;;;;;;6.58;60.41;101190.28;18428689;32;20088;-60
2022/11/30 04:18:39;;;;;;;0.73;0.73;;;;;;;6.30;59.98;101192.09;18428252;32;20111;-59
2022/11/30 04:28:42;;;;;;;0.88;0.88;;;;;;;6.10;60.18;101182.91;18427009;32;20093;-59
2022/11/30 04:38:47;;;;;;;1.37;1.27;;;;;;;5.93;60.40;101192.75;18426955;32;20089;-60
2022/11/30 04:48:50;;;;;;;0.80;0.80;;;;;;;6.70;59.12;101184.53;18411832;32;20119;-60
2022/11/30 04:58:55;;;;;;;1.25;0.90;;;;;;;6.46;59.10;101193.41;18425724;32;20132;-60
2022/11/30 05:08:58;;;;;;;0.70;0.70;;;;;;;6.47;58.84;101193.44;18426204;32;20111;-60
2022/11/30 05:19:02;;;;;;;0.70;0.70;;;;;;;6.58;58.31;101183.34;18424684;32;20120;-59
2022/11/30 05:29:06;;;;;;;0.77;0.77;;;;;;;6.42;58.57;101192.44;18424194;32;20445;-60
2022/11/30 05:39:10;;;;;;;0.80;0.80;;;;;;;6.38;57.75;101181.09;18429331;32;20098;-60
2022/11/30 05:49:13;;;;;;;1.12;0.80;;;;;;;6.47;58.83;101180.47;18432605;32;20112;-60
2022/11/30 05:59:18;;;;;;;0.60;0.60;;;;;;;6.70;58.31;101192.31;18431089;32;20103;-60
2022/11/30 06:09:21;;;;;;;0.62;0.62;;;;;;;7.02;57.38;101193.16;18371964;32;20088;-60
2022/11/30 06:19:25;;;;;;;1.25;1.17;;;;;;;6.93;58.53;101203.31;18367586;32;20425;-59
2022/11/30 06:29:29;;;;;;;0.55;0.55;;;;;;;6.36;59.32;101213.91;18367337;32;20119;-59
2022/11/30 06:39:33;;;;;;;1.35;1.35;;;;;;;6.86;58.30;101203.97;18367235;32;20089;-60
2022/11/30 06:49:56;;;;;;;0.98;0.98;;;;;;;7.06;59.48;101215.75;18367956;32;20460;-60
2022/11/30 07:00:01;;;;;;;0.82;0.82;;;;;;;7.35;58.20;101212.09;18362664;32;20102;-60
2022/11/30 07:10:06;;;;;;;0.50;0.50;;;;;;;7.30;58.93;101212.03;18391791;32;20125;-60
2022/11/30 07:20:10;;;;;;;0.70;0.70;;;;;;;7.51;59.79;101228.97;18402643;32;20432;-60
2022/11/30 07:30:14;;;;;;;0.90;0.73;;;;;;;7.42;60.91;101231.34;18430085;32;20112;-60
2022/11/30 07:40:19;;;;;;;2.35;1.02;;;;;;;7.45;61.03;101246.97;18429880;32;20105;-60
2022/11/30 07:50:22;;;;;;;0.70;0.70;;;;;;;7.49;61.58;101228.91;18406973;32;20530;-60
2022/11/30 08:00:26;;;;;;;0.95;0.93;;;;;;;7.63;61.16;101225.75;18401471;32;20195;-59
2022/11/30 08:10:30;;;;;;;0.80;0.80;;;;;;;7.86;59.48;101228.88;18364339;32;20098;-60
2022/11/30 08:20:34;;;;;;;0.62;0.62;;;;;;;7.87;56.50;101234.97;18363988;32;20141;-59
2022/11/30 08:30:37;;;;;;;2.03;1.87;;;;;;;8.14;56.72;101245.06;18406778;32;20166;-60
2022/11/30 08:40:42;;;;;;;1.85;1.75;;;;;;;8.28;56.71;101240.16;18427054;32;20096;-60
2022/11/30 08:50:45;;;;;;;0.65;0.65;;;;;;;8.39;55.35;101230.00;18423817;32;20162;-61
2022/11/30 09:00:50;;;;;;;3.70;0.73;;;;;;;8.49;53.80;101225.84;18424899;32;20393;-61
2022/11/30 09:10:54;;;;;;;0.60;0.60;;;;;;;8.85;52.67;101218.75;18426020;32;20105;-61
2022/11/30 09:21:00;;;;;;;0.70;0.70;;;;;;;8.95;51.65;101207.63;18427958;32;20101;-61
2022/11/30 09:31:05;;;;;;;3.67;1.83;;;;;;;9.02;49.95;101196.47;18427008;32;20527;-61
2022/11/30 09:41:29;;;;;;;1.58;1.27;;;;;;;8.80;50.64;101204.75;18430219;32;20101;-62
2022/11/30 09:51:41;;;;;;;0.60;0.60;;;;;;;8.72;49.66;101197.66;18431235;32;20200;-61
2022/11/30 10:01:47;;;;;;;0.70;0.70;;;;;;;8.73;50.29;101196.84;18426360;32;20115;-61
2022/11/30 10:12:04;;;;;;;0.90;0.90;;;;;;;9.02;49.20;101201.69;18432932;32;20145;-61
2022/11/30 10:22:14;;;;;;;0.80;0.80;;;;;;;9.34;49.43;101191.75;18428896;32;20642;-61
2022/11/30 10:32:20;;;;;;;0.75;0.75;;;;;;;9.25;49.82;101195.97;18425707;32;20409;-61
2022/11/30 10:42:28;;;;;;;0.50;0.50;;;;;;;9.49;49.19;101202.44;18427934;32;20113;-61
2022/11/30 10:52:35;;;;;;;0.60;0.60;;;;;;;9.63;47.39;101188.72;18429278;32;20084;-61
2022/11/30 11:02:42;;;;;;;0.88;0.88;;;;;;;9.55;49.07;101186.88;18430318;32;20089;-61
2022/11/30 11:12:50;;;;;;;1.20;0.90;;;;;;;9.89;48.05;101176.03;18425489;32;20090;-61
2022/11/30 11:22:55;;;;;;;0.52;0.52;;;;;;;10.08;47.67;101177.16;18408031;32;20088;-61
2022/11/30 11:32:59;;;;;;;0.50;0.50;;;;;;;10.03;47.03;101157.94;18426350;32;20101;-61
2022/11/30 11:43:16;;;;;;;0.50;0.50;;;;;;;10.43;45.22;101141.00;18427226;32;20089;-61
2022/11/30 11:53:24;;;;;;;1.65;1.55;;;;;;;10.33;45.98;101145.25;18404083;32;20081;-61
2022/11/30 12:03:33;;;;;;;0.77;0.77;;;;;;;10.28;45.57;101151.28;18428260;32;20111;-61
2022/11/30 12:13:39;;;;;;;0.40;0.40;;;;;;;9.81;45.85;101147.25;18425943;32;20085;-61
2022/11/30 12:24:12;;;;;;;0.82;0.82;;;;;;;10.39;45.97;101156.63;18427920;32;20097;-61
2022/11/30 12:34:21;;;;;;;9.98;1.27;;;;;;;10.76;45.69;101156.13;18424806;32;20546;-61
2022/11/30 12:44:33;;;;;;;0.40;0.40;;;;;;;10.48;44.74;101155.91;18427562;32;20093;-61
2022/11/30 12:54:51;;;;;;;0.80;0.80;;;;;;;11.10;45.36;101150.34;18444675;32;20153;-61
2022/11/30 13:04:59;;;;;;;0.50;0.50;;;;;;;10.83;45.62;101131.81;18440118;32;20077;-61
2022/11/30 13:15:05;;;;;;;0.60;0.60;;;;;;;10.80;45.95;101134.41;18442825;32;20116;-61
2022/11/30 13:25:23;;;;;;;0.90;0.90;;;;;;;10.65;44.91;101132.56;18445728;32;20361;-61
2022/11/30 13:35:53;;;;;;;0.80;0.80;;;;;;;10.52;46.70;101142.00;18447380;32;20396;-61
2022/11/30 13:46:13;;;;;;;0.50;0.50;;;;;;;10.94;45.36;101134.53;18445898;32;20133;-61
2022/11/30 13:56:34;;;;;;;1.15;0.98;;;;;;;10.77;45.94;101130.91;18427319;32;20117;-62
2022/11/30 14:06:48;;;;;;;0.60;0.60;;;;;;;10.63;46.08;101131.66;18417226;32;20104;-61
2022/11/30 14:16:51;;;;;;;0.60;0.60;;;;;;;10.60;46.60;101118.56;18412606;32;20089;-61
2022/11/30 14:26:55;;;;;;;0.60;0.60;;;;;;;10.58;45.87;101120.28;18430012;32;20101;-61
2022/11/30 14:37:00;;;;;;;1.15;1.10;;;;;;;10.49;46.39;101130.66;18431041;32;20350;-62
2022/11/30 14:47:16;;;;;;;0.45;0.45;;;;;;;10.37;46.24;101128.75;18433731;32;20089;-61
2022/11/30 14:57:23;;;;;;;0.65;0.65;;;;;;;10.44;46.87;101127.12;18431875;32;20117;-61
2022/11/30 15:07:28;;;;;;;0.82;0.80;;;;;;;10.30;48.16;101119.13;18434356;32;20107;-61
2022/11/30 15:17:32;;;;;;;0.55;0.55;;;;;;;10.18;49.02;101119.88;18430940;32;20084;-61
2022/11/30 15:27:36;;;;;;;0.98;0.98;;;;;;;10.02;49.12;101119.69;18429295;32;20144;-61
2022/11/30 15:37:40;;;;;;;1.02;1.00;;;;;;;9.81;50.74;101125.50;18429556;32;20155;-62
2022/11/30 15:47:45;;;;;;;1.15;1.05;;;;;;;9.63;52.79;101116.62;18425683;32;20126;-61
2022/11/30 15:57:59;;;;;;;2.20;1.55;;;;;;;9.36;53.87;101130.12;18390322;32;20148;-61
2022/11/30 16:08:05;;;;;;;1.75;1.58;;;;;;;9.18;54.78;101118.56;18405630;32;20142;-61
2022/11/30 16:18:14;;;;;;;0.93;0.93;;;;;;;9.13;54.93;101120.25;18363037;32;20141;-61
2022/11/30 16:28:19;;;;;;;1.60;0.90;;;;;;;9.00;54.75;101120.03;18363643;32;20120;-61
2022/11/30 16:38:23;;;;;;;1.50;0.90;;;;;;;8.91;54.93;101117.28;18405084;32;20077;-61
2022/11/30 16:48:29;;;;;;;1.02;1.02;;;;;;;8.66;56.48;101108.19;18404952;32;20137;-61
2022/11/30 16:58:32;;;;;;;3.45;1.90;;;;;;;8.68;56.17;101112.56;18424460;32;20109;-61
2022/11/30 17:08:37;;;;;;;0.60;0.60;;;;;;;8.61;56.01;101108.09;18425558;32;20498;-61
2022/11/30 17:18:41;;;;;;;1.12;1.02;;;;;;;8.38;56.52;101116.34;18426675;32;20109;-61
2022/11/30 17:28:46;;;;;;;0.70;0.70;;;;;;;8.02;57.71;101123.50;18427213;32;20085;-61
2022/11/30 17:38:49;;;;;;;1.30;1.23;;;;;;;7.93;58.39;101123.31;18390431;32;20112;-61
2022/11/30 17:48:55;;;;;;;1.20;1.10;;;;;;;7.99;57.51;101126.00;18420808;32;20112;-61
2022/11/30 17:58:59;;;;;;;1.05;1.05;;;;;;;7.81;57.40;101130.84;18422083;32;20168;-61
2022/11/30 18:09:04;;;;;;;0.65;0.65;;;;;;;7.69;57.81;101140.12;18420791;32;20097;-61
2022/11/30 18:19:13;;;;;;;0.60;0.60;;;;;;;7.47;58.53;101151.75;18420781;32;20500;-61
2022/11/30 18:29:18;;;;;;;2.37;1.30;;;;;;;7.57;58.44;101158.91;18433921;32;20104;-61
2022/11/30 18:39:21;;;;;;;0.90;0.90;;;;;;;7.34;59.63;101148.91;18398597;32;20444;-61
2022/11/30 18:49:26;;;;;;;2.35;2.25;;;;;;;7.27;60.32;101149.59;18392148;32;20376;-61
2022/11/30 18:59:29;;;;;;;0.60;0.60;;;;;;;7.31;60.06;101156.63;18429353;32;20101;-61
2022/11/30 19:09:35;;;;;;;1.40;1.30;;;;;;;7.15;59.01;101154.50;18417006;32;20113;-61
2022/11/30 19:19:38;;;;;;;3.33;2.12;;;;;;;6.86;59.80;101165.03;18432452;32;20145;-61
2022/11/30 19:29:43;;;;;;;0.82;0.82;;;;;;;6.79;59.84;101156.22;18433670;32;20150;-61
2022/11/30 19:39:47;;;;;;;0.65;0.65;;;;;;;6.73;59.90;101162.13;18432608;32;20093;-61
2022/11/30 19:49:52;;;;;;;2.92;2.67;;;;;;;6.60;60.10;101170.44;18430942;32;20093;-60
2022/11/30 19:59:55;;;;;;;1.02;1.02;;;;;;;6.49;59.99;101167.53;18414295;32;20393;-61
2022/11/30 20:10:00;;;;;;;0.55;0.55;;;;;;;6.40;60.13;101173.38;18406148;32;20108;-59
2022/11/30 20:20:04;;;;;;;0.60;0.60;;;;;;;6.34;60.50;101178.38;18414238;32;20710;-59
2022/11/30 20:30:10;;;;;;;0.60;0.60;;;;;;;6.35;60.72;101181.00;18430111;32;20097;-59
2022/11/30 20:40:13;;;;;;;1.85;1.60;;;;;;;6.45;61.07;101186.47;18428443;32;20147;-59
2022/11/30 20:50:19;;;;;;;1.65;1.37;;;;;;;6.33;61.86;101180.09;18427738;32;20115;-59
2022/11/30 21:00:22;;;;;;;0.98;0.98;;;;;;;6.57;61.19;101179.00;18427453;32;20138;-59
2022/11/30 21:10:27;;;;;;;0.80;0.80;;;;;;;6.46;61.57;101178.72;18433074;32;20089;-59
2022/11/30 21:20:30;;;;;;;2.37;2.22;;;;;;;6.35;61.77;101175.84;18435460;32;20089;-59
2022/11/30 21:30:35;;;;;;;0.70;0.70;;;;;;;6.22;62.46;101184.12;18371274;32;20113;-59
2022/11/30 21:40:38;;;;;;;11.07;9.02;;;;;;;6.24;62.07;101177.25;18370931;32;20101;-59
2022/11/30 21:50:43;;;;;;;7.47;1.95;;;;;;;6.12;62.40;101185.56;18372144;32;20089;-59
2022/11/30 22:00:46;;;;;;;6.30;2.15;;;;;;;6.07;61.96;101200.97;18435856;32;20146;-59
2022/11/30 22:10:51;;;;;;;0.95;0.95;;;;;;;6.13;61.72;101208.03;18433842;32;20396;-59
2022/11/30 22:20:55;;;;;;;1.50;1.42;;;;;;;5.96;61.68;101212.72;18432666;32;20419;-60
2022/11/30 22:31:04;;;;;;;1.62;1.52;;;;;;;5.89;61.99;101213.34;18433857;32;20097;-59
2022/11/30 22:41:09;;;;;;;1.00;1.00;;;;;;;6.02;61.92;101212.03;18434731;32;20069;-59
2022/11/30 22:51:15;;;;;;;2.47;2.35;;;;;;;5.91;62.52;101222.94;18433984;32;20448;-59
2022/11/30 23:01:20;;;;;;;0.98;0.98;;;;;;;5.83;62.96;101211.47;18433737;32;20101;-59
2022/11/30 23:11:25;;;;;;;3.42;3.20;;;;;;;5.81;62.95;101213.13;18433466;32;20457;-59
2022/11/30 23:21:30;;;;;;;2.15;2.05;;;;;;;5.78;62.94;101203.53;18433158;32;20157;-59
2022/11/30 23:31:43;;;;;;;0.68;0.68;;;;;;;5.85;63.09;101201.16;18432548;32;20089;-59
2022/11/30 23:41:46;;;;;;;1.42;1.33;;;;;;;5.21;65.15;101188.78;18432931;32;20131;-59
2022/11/30 23:51:50;;;;;;;0.98;0.98;;;;;;;5.53;63.80;101191.56;18432148;32;20218;-59
